createdAt,value
2023-03-12T00:00:19.122Z,74.90
2023-03-12T00:00:51.358Z,74.90
2023-03-12T00:01:25.641Z,75.00
2023-03-12T00:01:59.898Z,75.00
2023-03-12T00:02:31.826Z,75.00
2023-03-12T00:03:03.902Z,75.10
2023-03-12T00:03:36.802Z,75.20
2023-03-12T00:04:08.802Z,75.30
2023-03-12T00:04:41.872Z,75.40
2023-03-12T00:05:13.904Z,75.40
2023-03-12T00:05:46.427Z,75.40
2023-03-12T00:06:20.913Z,75.50
2023-03-12T00:06:52.924Z,75.60
2023-03-12T00:07:24.913Z,75.70
2023-03-12T00:07:59.765Z,75.70
2023-03-12T00:08:31.741Z,75.80
2023-03-12T00:09:04.635Z,75.80
2023-03-12T00:09:38.093Z,75.90
2023-03-12T00:10:11.447Z,75.90
2023-03-12T00:10:43.367Z,76.00
2023-03-12T00:11:18.699Z,76.00
2023-03-12T00:11:50.579Z,76.10
2023-03-12T00:12:22.450Z,76.00
2023-03-12T00:12:54.668Z,76.10
2023-03-12T00:13:27.627Z,76.10
2023-03-12T00:14:01.158Z,76.10
2023-03-12T00:14:34.392Z,76.10
2023-03-12T00:15:07.654Z,76.00
2023-03-12T00:15:39.668Z,75.90
2023-03-12T00:16:15.429Z,75.80
2023-03-12T00:16:47.364Z,75.70
2023-03-12T00:17:19.257Z,75.60
2023-03-12T00:17:52.425Z,75.70
2023-03-12T00:18:24.309Z,75.50
2023-03-12T00:18:56.556Z,75.30
2023-03-12T00:19:29.468Z,75.30
2023-03-12T00:20:01.364Z,75.20
2023-03-12T00:20:33.483Z,75.80
2023-03-12T00:21:07.683Z,75.20
2023-03-12T00:21:39.581Z,75.10
2023-03-12T00:22:12.499Z,75.10
2023-03-12T00:22:44.584Z,75.20
2023-03-12T00:23:16.461Z,75.10
2023-03-12T00:23:49.953Z,75.10
2023-03-12T00:24:21.833Z,75.00
2023-03-12T00:24:55.313Z,75.00
2023-03-12T00:25:28.435Z,75.10
2023-03-12T00:26:01.336Z,75.20
2023-03-12T00:26:33.292Z,75.30
2023-03-12T00:27:07.538Z,75.30
2023-03-12T00:27:39.915Z,75.40
2023-03-12T00:28:11.994Z,75.50
2023-03-12T00:28:44.896Z,76.40
2023-03-12T00:29:18.140Z,75.70
2023-03-12T00:29:51.075Z,75.60
2023-03-12T00:30:23.045Z,75.60
2023-03-12T00:30:57.182Z,75.80
2023-03-12T00:31:32.993Z,75.80
2023-03-12T00:32:05.523Z,75.70
2023-03-12T00:32:38.182Z,75.90
2023-03-12T00:33:10.469Z,75.70
2023-03-12T00:33:43.357Z,75.80
2023-03-12T00:34:15.268Z,75.80
2023-03-12T00:34:51.177Z,75.90
2023-03-12T00:35:24.139Z,76.00
2023-03-12T00:35:59.799Z,76.10
2023-03-12T00:36:32.917Z,76.10
2023-03-12T00:37:05.813Z,76.10
2023-03-12T00:37:38.197Z,76.40
2023-03-12T00:38:10.400Z,76.30
2023-03-12T00:38:43.426Z,76.30
2023-03-12T00:39:15.315Z,76.30
2023-03-12T00:39:47.532Z,76.30
2023-03-12T00:40:20.490Z,76.50
2023-03-12T00:40:52.342Z,76.50
2023-03-12T00:41:25.398Z,76.60
2023-03-12T00:41:58.205Z,76.60
2023-03-12T00:42:30.057Z,76.60
2023-03-12T00:43:01.914Z,76.70
2023-03-12T00:43:34.821Z,76.70
2023-03-12T00:44:06.808Z,76.90
2023-03-12T00:44:40.233Z,77.00
2023-03-12T00:45:13.129Z,77.10
2023-03-12T00:45:45.320Z,77.10
2023-03-12T00:46:17.708Z,77.20
2023-03-12T00:46:50.641Z,77.30
2023-03-12T00:47:22.621Z,77.30
2023-03-12T00:47:54.495Z,77.30
2023-03-12T00:48:27.408Z,77.10
2023-03-12T00:48:59.327Z,77.10
2023-03-12T00:49:31.223Z,77.00
2023-03-12T00:50:04.740Z,76.90
2023-03-12T00:50:36.638Z,76.90
2023-03-12T00:51:09.192Z,76.80
2023-03-12T00:51:42.074Z,76.70
2023-03-12T00:52:13.991Z,76.80
2023-03-12T00:52:45.820Z,76.90
2023-03-12T00:53:18.796Z,76.90
2023-03-12T00:53:50.773Z,76.90
2023-03-12T00:54:22.712Z,77.10
2023-03-12T00:54:58.156Z,77.40
2023-03-12T00:55:30.391Z,77.60
2023-03-12T00:56:02.601Z,77.80
2023-03-12T00:56:35.591Z,77.90
2023-03-12T00:57:07.494Z,77.90
2023-03-12T00:57:39.400Z,78.00
2023-03-12T00:58:12.318Z,78.10
2023-03-12T00:58:44.261Z,78.10
2023-03-12T00:59:16.182Z,78.30
2023-03-12T00:59:50.414Z,78.50
2023-03-12T01:00:22.803Z,78.60
2023-03-12T01:00:54.714Z,78.70
2023-03-12T01:01:27.765Z,78.80
2023-03-12T01:01:59.627Z,78.90
2023-03-12T01:02:31.469Z,78.90
2023-03-12T01:03:03.529Z,79.00
2023-03-12T01:03:36.480Z,79.00
2023-03-12T01:04:08.754Z,79.20
2023-03-12T01:04:40.677Z,79.30
2023-03-12T01:05:14.488Z,79.30
2023-03-12T01:05:46.397Z,79.30
2023-03-12T01:06:18.577Z,79.40
2023-03-12T01:06:51.629Z,79.50
2023-03-12T01:07:23.526Z,79.70
2023-03-12T01:07:55.554Z,79.80
2023-03-12T01:08:27.670Z,79.90
2023-03-12T01:09:01.954Z,80.10
2023-03-12T01:09:33.917Z,80.40
2023-03-12T01:10:08.087Z,80.50
2023-03-12T01:10:43.594Z,80.50
2023-03-12T01:11:16.825Z,80.70
2023-03-12T01:11:48.744Z,80.80
2023-03-12T01:12:21.659Z,80.90
2023-03-12T01:12:53.534Z,81.00
2023-03-12T01:13:25.379Z,81.10
2023-03-12T01:13:58.204Z,81.20
2023-03-12T01:14:30.460Z,82.10
2023-03-12T01:15:04.219Z,81.50
2023-03-12T01:15:37.112Z,81.50
2023-03-12T01:16:09.337Z,81.50
2023-03-12T01:16:41.312Z,81.50
2023-03-12T01:17:14.180Z,81.50
2023-03-12T01:17:46.035Z,81.50
2023-03-12T01:18:17.915Z,81.40
2023-03-12T01:18:50.774Z,81.30
2023-03-12T01:19:22.864Z,81.20
2023-03-12T01:19:54.717Z,81.10
2023-03-12T01:20:27.604Z,81.10
2023-03-12T01:20:59.497Z,81.00
2023-03-12T01:21:31.796Z,81.40
2023-03-12T01:22:04.203Z,80.70
2023-03-12T01:22:38.158Z,80.50
2023-03-12T01:23:10.096Z,80.30
2023-03-12T01:23:41.995Z,80.30
2023-03-12T01:24:14.946Z,80.30
2023-03-12T01:24:46.932Z,80.30
2023-03-12T01:25:19.224Z,80.20
2023-03-12T01:25:55.328Z,80.20
2023-03-12T01:26:27.267Z,80.00
2023-03-12T01:26:59.135Z,80.00
2023-03-12T01:27:31.043Z,79.80
2023-03-12T01:28:03.897Z,79.60
2023-03-12T01:28:35.796Z,79.50
2023-03-12T01:29:07.662Z,80.00
2023-03-12T01:29:40.522Z,79.30
2023-03-12T01:30:14.692Z,79.30
2023-03-12T01:30:46.591Z,79.20
2023-03-12T01:31:20.380Z,79.20
2023-03-12T01:31:52.804Z,79.20
2023-03-12T01:32:25.819Z,79.30
2023-03-12T01:32:59.313Z,79.30
2023-03-12T01:33:31.206Z,79.40
2023-03-12T01:34:04.024Z,79.50
2023-03-12T01:34:35.934Z,79.40
2023-03-12T01:35:08.560Z,79.50
2023-03-12T01:35:42.517Z,79.70
2023-03-12T01:36:18.161Z,79.50
2023-03-12T01:36:50.127Z,79.30
2023-03-12T01:37:23.038Z,79.40
2023-03-12T01:37:55.950Z,79.60
2023-03-12T01:38:27.878Z,79.90
2023-03-12T01:39:01.011Z,80.20
2023-03-12T01:39:32.979Z,80.30
2023-03-12T01:40:05.703Z,80.20
2023-03-12T01:40:38.607Z,80.10
2023-03-12T01:41:10.491Z,80.20
2023-03-12T01:41:42.378Z,80.10
2023-03-12T01:42:15.253Z,80.10
2023-03-12T01:42:52.422Z,80.20
2023-03-12T01:43:28.255Z,80.50
2023-03-12T01:44:03.546Z,80.80
2023-03-12T01:44:54.220Z,81.00
2023-03-12T01:46:04.840Z,81.50
2023-03-12T01:46:39.698Z,82.20
2023-03-12T01:47:12.568Z,82.60
2023-03-12T01:47:44.401Z,82.80
2023-03-12T01:48:19.235Z,82.80
2023-03-12T01:48:57.512Z,82.80
2023-03-12T01:49:31.471Z,82.80
2023-03-12T01:50:05.667Z,83.40
2023-03-12T01:50:38.132Z,82.60
2023-03-12T01:51:12.344Z,82.50
2023-03-12T01:51:50.364Z,82.40
2023-03-12T01:52:25.381Z,82.20
2023-03-12T01:52:57.307Z,82.10
2023-03-12T01:53:30.991Z,82.50
2023-03-12T01:54:09.184Z,81.70
2023-03-12T01:54:43.859Z,81.40
2023-03-12T01:55:18.416Z,81.20
2023-03-12T01:55:50.883Z,80.80
2023-03-12T01:56:27.067Z,80.60
2023-03-12T01:57:02.555Z,80.60
2023-03-12T01:57:38.158Z,80.70
2023-03-12T01:58:10.310Z,80.70
2023-03-12T01:58:47.129Z,80.70
2023-03-12T01:59:23.427Z,80.70
2023-03-12T02:00:00.155Z,80.70
2023-03-12T02:00:33.329Z,80.70
2023-03-12T02:01:05.581Z,80.70
2023-03-12T02:01:40.180Z,80.70
2023-03-12T02:02:13.752Z,80.70
2023-03-12T02:02:47.542Z,80.60
2023-03-12T02:03:19.416Z,80.50
2023-03-12T02:03:53.121Z,80.40
2023-03-12T02:04:28.215Z,80.10
2023-03-12T02:05:06.088Z,79.70
2023-03-12T02:05:46.137Z,79.60
2023-03-12T02:06:21.364Z,79.50
2023-03-12T02:06:59.743Z,79.50
2023-03-12T02:07:33.479Z,79.30
2023-03-12T02:08:06.960Z,79.10
2023-03-12T02:08:43.294Z,79.10
2023-03-12T02:09:16.260Z,78.80
2023-03-12T02:09:49.348Z,78.50
2023-03-12T02:10:21.867Z,78.50
2023-03-12T02:10:54.816Z,78.50
2023-03-12T02:11:26.729Z,78.40
2023-03-12T02:11:58.660Z,78.60
2023-03-12T02:12:31.536Z,78.70
2023-03-12T02:13:03.490Z,78.80
2023-03-12T02:13:35.604Z,78.90
2023-03-12T02:14:08.537Z,79.00
2023-03-12T02:14:40.842Z,79.10
2023-03-12T02:15:12.890Z,79.20
2023-03-12T02:15:45.834Z,79.40
2023-03-12T02:16:17.754Z,79.50
2023-03-12T02:16:53.984Z,79.60
2023-03-12T02:17:26.049Z,79.70
2023-03-12T02:17:58.172Z,79.70
2023-03-12T02:18:32.301Z,79.60
2023-03-12T02:19:09.277Z,79.70
2023-03-12T02:19:50.135Z,79.70
2023-03-12T02:20:28.052Z,79.60
2023-03-12T02:21:10.954Z,79.70
2023-03-12T02:21:43.819Z,79.80
2023-03-12T02:22:16.056Z,79.80
2023-03-12T02:22:52.543Z,79.80
2023-03-12T02:23:31.532Z,80.00
2023-03-12T02:24:08.244Z,80.20
2023-03-12T02:24:49.510Z,80.30
2023-03-12T02:25:30.932Z,80.40
2023-03-12T02:26:05.529Z,80.50
2023-03-12T02:26:39.916Z,80.50
2023-03-12T02:27:12.576Z,80.50
2023-03-12T02:27:45.025Z,80.60
2023-03-12T02:28:23.516Z,80.70
2023-03-12T02:28:56.354Z,81.30
2023-03-12T02:29:32.144Z,81.20
2023-03-12T02:30:06.727Z,81.40
2023-03-12T02:30:40.226Z,81.40
2023-03-12T02:31:15.388Z,81.30
2023-03-12T02:31:53.017Z,81.30
2023-03-12T02:32:28.340Z,81.30
2023-03-12T02:33:05.080Z,81.20
2023-03-12T02:33:37.945Z,81.30
2023-03-12T02:34:10.100Z,81.40
2023-03-12T02:34:41.949Z,81.40
2023-03-12T02:35:15.518Z,81.50
2023-03-12T02:35:48.157Z,81.50
2023-03-12T02:36:20.402Z,81.50
2023-03-12T02:36:53.559Z,81.40
2023-03-12T02:37:25.653Z,81.30
2023-03-12T02:37:57.957Z,81.40
2023-03-12T02:38:37.620Z,81.30
2023-03-12T02:39:11.805Z,81.30
2023-03-12T02:39:46.340Z,81.50
2023-03-12T02:40:23.957Z,81.60
2023-03-12T02:41:01.477Z,81.60
2023-03-12T02:41:36.064Z,81.70
2023-03-12T02:42:08.976Z,81.90
2023-03-12T02:42:40.997Z,82.00
2023-03-12T02:43:21.697Z,82.20
2023-03-12T02:44:02.757Z,82.40
2023-03-12T02:44:36.437Z,82.40
2023-03-12T02:45:09.054Z,82.60
2023-03-12T02:45:42.060Z,82.70
2023-03-12T02:46:14.568Z,83.50
2023-03-12T02:46:49.100Z,82.80
2023-03-12T02:47:21.969Z,83.00
2023-03-12T02:47:53.807Z,82.90
2023-03-12T02:48:25.736Z,83.00
2023-03-12T02:48:59.668Z,83.00
2023-03-12T02:49:33.302Z,83.00
2023-03-12T02:50:06.084Z,82.90
2023-03-12T02:50:39.005Z,82.70
2023-03-12T02:51:10.875Z,82.90
2023-03-12T02:51:45.477Z,83.00
2023-03-12T02:52:17.329Z,83.30
2023-03-12T02:52:49.252Z,83.40
2023-03-12T02:53:21.124Z,83.50
2023-03-12T02:53:55.003Z,83.50
2023-03-12T02:54:27.615Z,83.50
2023-03-12T02:54:59.721Z,83.50
2023-03-12T02:55:32.636Z,83.50
2023-03-12T02:56:07.601Z,83.60
2023-03-12T02:56:40.148Z,83.70
2023-03-12T02:57:13.027Z,83.90
2023-03-12T02:57:44.882Z,83.90
2023-03-12T02:58:16.761Z,84.00
2023-03-12T02:58:49.796Z,83.90
2023-03-12T02:59:22.482Z,83.90
2023-03-12T02:59:54.308Z,83.90
2023-03-12T03:00:27.414Z,84.10
2023-03-12T03:00:59.300Z,84.40
2023-03-12T03:01:33.979Z,84.60
2023-03-12T03:02:07.148Z,85.00
2023-03-12T03:02:39.352Z,85.20
2023-03-12T03:03:11.240Z,85.30
2023-03-12T03:03:43.156Z,85.40
2023-03-12T03:04:16.071Z,85.50
2023-03-12T03:04:47.945Z,85.60
2023-03-12T03:05:20.401Z,85.60
2023-03-12T03:05:53.470Z,85.60
2023-03-12T03:06:25.454Z,85.70
2023-03-12T03:06:57.422Z,85.70
2023-03-12T03:07:30.315Z,85.70
2023-03-12T03:08:02.184Z,85.50
2023-03-12T03:08:34.111Z,85.80
2023-03-12T03:09:07.328Z,86.20
2023-03-12T03:09:39.168Z,86.10
2023-03-12T03:10:11.618Z,86.20
2023-03-12T03:10:44.497Z,86.20
2023-03-12T03:11:18.152Z,86.20
2023-03-12T03:11:50.821Z,86.30
2023-03-12T03:12:23.745Z,86.40
2023-03-12T03:12:55.593Z,86.40
2023-03-12T03:13:27.488Z,86.50
2023-03-12T03:14:00.358Z,86.40
2023-03-12T03:14:32.418Z,86.60
2023-03-12T03:15:05.101Z,86.80
2023-03-12T03:15:38.769Z,87.00
2023-03-12T03:16:12.294Z,87.20
2023-03-12T03:16:44.211Z,87.40
2023-03-12T03:17:17.130Z,87.50
2023-03-12T03:17:49.020Z,87.70
2023-03-12T03:18:20.855Z,88.10
2023-03-12T03:18:53.737Z,88.40
2023-03-12T03:19:25.795Z,88.90
2023-03-12T03:19:57.650Z,89.30
2023-03-12T03:20:31.332Z,89.50
2023-03-12T03:21:05.606Z,89.80
2023-03-12T03:21:37.729Z,90.00
2023-03-12T03:22:10.568Z,90.10
2023-03-12T03:22:42.426Z,90.10
2023-03-12T03:23:14.285Z,90.20
2023-03-12T03:23:47.972Z,90.20
2023-03-12T03:24:20.966Z,90.30
2023-03-12T03:24:53.189Z,90.60
2023-03-12T03:25:25.456Z,90.30
2023-03-12T03:25:59.388Z,90.30
2023-03-12T03:26:32.652Z,90.30
2023-03-12T03:27:04.688Z,90.40
2023-03-12T03:27:37.577Z,90.40
2023-03-12T03:28:09.424Z,90.50
2023-03-12T03:29:14.406Z,90.60
2023-03-12T03:30:21.195Z,90.70
2023-03-12T03:30:54.648Z,90.70
2023-03-12T03:31:26.764Z,90.70
2023-03-12T03:31:59.600Z,90.80
2023-03-12T03:32:31.577Z,90.90
2023-03-12T03:33:04.452Z,91.00
2023-03-12T03:33:39.084Z,91.00
2023-03-12T03:34:11.125Z,91.00
2023-03-12T03:34:42.947Z,91.00
2023-03-12T03:35:15.999Z,91.00
2023-03-12T03:35:48.416Z,91.00
2023-03-12T03:36:20.422Z,91.10
2023-03-12T03:36:53.367Z,91.20
2023-03-12T03:37:25.335Z,91.30
2023-03-12T03:37:57.286Z,91.60
2023-03-12T03:38:31.661Z,91.40
2023-03-12T03:39:05.064Z,91.40
2023-03-12T03:39:37.051Z,91.40
2023-03-12T03:40:12.263Z,91.50
2023-03-12T03:40:44.156Z,91.50
2023-03-12T03:41:16.638Z,91.50
2023-03-12T03:41:52.040Z,91.50
2023-03-12T03:42:23.869Z,91.50
2023-03-12T03:42:56.049Z,91.50
2023-03-12T03:43:29.328Z,91.60
2023-03-12T03:44:01.240Z,91.60
2023-03-12T03:44:33.079Z,91.60
2023-03-12T03:45:08.128Z,91.60
2023-03-12T03:45:39.994Z,91.60
2023-03-12T03:46:13.508Z,91.60
2023-03-12T03:46:46.833Z,91.70
2023-03-12T03:47:19.296Z,91.80
2023-03-12T03:47:51.268Z,91.90
2023-03-12T03:48:24.102Z,92.00
2023-03-12T03:48:55.958Z,92.10
2023-03-12T03:49:28.964Z,92.20
2023-03-12T03:50:00.816Z,92.40
2023-03-12T03:50:32.744Z,92.50
2023-03-12T03:51:07.609Z,92.60
2023-03-12T03:51:41.967Z,92.70
2023-03-12T03:52:13.850Z,92.90
2023-03-12T03:52:46.742Z,92.90
2023-03-12T03:53:19.346Z,93.00
2023-03-12T03:53:51.283Z,93.20
2023-03-12T03:54:24.205Z,93.30
2023-03-12T03:54:56.949Z,93.50
2023-03-12T03:55:29.843Z,93.60
2023-03-12T03:56:06.115Z,93.70
2023-03-12T03:56:38.241Z,93.80
2023-03-12T03:57:12.491Z,93.90
2023-03-12T03:57:44.361Z,94.10
2023-03-12T03:58:16.403Z,94.20
2023-03-12T03:58:49.377Z,94.20
2023-03-12T03:59:21.257Z,94.30
2023-03-12T03:59:53.228Z,94.30
2023-03-12T04:00:26.145Z,94.40
2023-03-12T04:00:58.035Z,94.70
2023-03-12T04:01:31.262Z,94.50
2023-03-12T04:02:03.697Z,94.60
2023-03-12T04:02:37.091Z,94.80
2023-03-12T04:03:09.000Z,94.90
2023-03-12T04:03:41.157Z,95.00
2023-03-12T04:04:14.100Z,95.10
2023-03-12T04:04:45.972Z,95.20
2023-03-12T04:05:19.583Z,95.20
2023-03-12T04:05:55.957Z,95.20
2023-03-12T04:06:29.566Z,95.20
2023-03-12T04:07:01.460Z,95.20
2023-03-12T04:07:34.784Z,95.30
2023-03-12T04:08:06.938Z,95.30
2023-03-12T04:08:39.474Z,95.20
2023-03-12T04:09:12.506Z,95.20
2023-03-12T04:09:44.609Z,95.30
2023-03-12T04:10:16.576Z,95.30
2023-03-12T04:10:49.432Z,95.30
2023-03-12T04:11:22.179Z,95.30
2023-03-12T04:11:54.105Z,95.30
2023-03-12T04:12:28.613Z,95.30
2023-03-12T04:13:00.516Z,95.30
2023-03-12T04:13:32.415Z,95.20
2023-03-12T04:14:05.369Z,95.20
2023-03-12T04:14:40.236Z,95.20
2023-03-12T04:15:15.370Z,95.10
2023-03-12T04:15:48.946Z,95.00
2023-03-12T04:16:20.836Z,95.00
2023-03-12T04:16:52.719Z,95.00
2023-03-12T04:17:25.602Z,94.90
2023-03-12T04:17:57.483Z,94.70
2023-03-12T04:18:29.528Z,94.90
2023-03-12T04:19:02.526Z,94.50
2023-03-12T04:19:34.812Z,94.50
2023-03-12T04:20:09.376Z,94.50
2023-03-12T04:20:42.360Z,94.50
2023-03-12T04:21:14.831Z,94.50
2023-03-12T04:21:46.791Z,94.50
2023-03-12T04:22:19.777Z,94.60
2023-03-12T04:22:51.695Z,94.80
2023-03-12T04:23:23.920Z,95.00
2023-03-12T04:23:56.757Z,95.10
2023-03-12T04:24:28.636Z,95.20
2023-03-12T04:25:00.598Z,95.30
2023-03-12T04:25:33.512Z,95.40
2023-03-12T04:26:06.156Z,95.60
2023-03-12T04:26:38.074Z,95.70
2023-03-12T04:27:10.984Z,95.90
2023-03-12T04:27:44.211Z,95.90
2023-03-12T04:28:16.168Z,96.00
2023-03-12T04:28:48.961Z,96.10
2023-03-12T04:29:20.802Z,96.20
2023-03-12T04:29:52.667Z,96.30
2023-03-12T04:30:25.546Z,96.40
2023-03-12T04:30:59.575Z,96.40
2023-03-12T04:31:31.691Z,96.50
2023-03-12T04:32:04.785Z,96.60
2023-03-12T04:32:36.746Z,96.60
2023-03-12T04:33:08.810Z,96.70
2023-03-12T04:33:42.032Z,96.70
2023-03-12T04:34:14.610Z,96.80
2023-03-12T04:34:46.635Z,96.80
2023-03-12T04:35:19.769Z,96.90
2023-03-12T04:35:52.780Z,97.00
2023-03-12T04:36:25.427Z,97.10
2023-03-12T04:36:58.280Z,97.20
2023-03-12T04:37:32.438Z,97.30
2023-03-12T04:38:04.445Z,97.40
2023-03-12T04:38:37.464Z,97.40
2023-03-12T04:39:09.573Z,97.40
2023-03-12T04:39:42.756Z,97.50
2023-03-12T04:40:15.469Z,97.50
2023-03-12T04:40:47.380Z,97.70
2023-03-12T04:41:20.386Z,97.80
2023-03-12T04:41:52.320Z,97.90
2023-03-12T04:42:24.375Z,98.20
2023-03-12T04:42:58.611Z,98.40
2023-03-12T04:43:31.415Z,98.60
2023-03-12T04:44:03.620Z,98.80
2023-03-12T04:44:37.216Z,99.00
2023-03-12T04:45:11.428Z,99.10
2023-03-12T04:45:43.260Z,99.20
2023-03-12T04:46:16.389Z,99.50
2023-03-12T04:46:48.408Z,99.70
2023-03-12T04:47:20.310Z,99.90
2023-03-12T04:47:53.761Z,99.90
2023-03-12T04:48:26.345Z,99.90
2023-03-12T04:48:58.202Z,99.90
2023-03-12T04:49:31.124Z,99.90
2023-03-12T04:50:03.099Z,99.90
2023-03-12T04:50:35.046Z,99.90
2023-03-12T04:51:08.111Z,99.90
2023-03-12T04:51:40.068Z,99.90
2023-03-12T04:52:13.568Z,99.90
2023-03-12T04:52:45.410Z,99.90
2023-03-12T04:53:17.623Z,99.90
2023-03-12T04:53:51.385Z,99.90
2023-03-12T04:54:23.443Z,99.90
2023-03-12T04:54:55.736Z,99.90
2023-03-12T04:55:28.604Z,99.90
2023-03-12T04:56:00.483Z,99.90
2023-03-12T04:56:32.420Z,99.90
2023-03-12T04:57:05.276Z,99.90
2023-03-12T04:57:37.177Z,99.90
2023-03-12T04:58:10.431Z,99.90
2023-03-12T04:58:43.309Z,99.90
2023-03-12T04:59:15.264Z,99.90
2023-03-12T04:59:47.516Z,99.90
2023-03-12T05:00:20.781Z,99.90
2023-03-12T05:00:52.659Z,99.90
2023-03-12T05:01:26.976Z,99.90
2023-03-12T05:01:59.846Z,99.90
2023-03-12T05:02:31.804Z,99.90
2023-03-12T05:03:03.808Z,99.90
2023-03-12T05:03:36.793Z,99.90
2023-03-12T05:04:09.001Z,99.90
2023-03-12T05:04:40.964Z,99.90
2023-03-12T05:05:13.811Z,99.90
2023-03-12T05:05:45.876Z,99.90
2023-03-12T05:06:17.879Z,99.90
2023-03-12T05:06:50.715Z,99.90
2023-03-12T05:07:22.564Z,99.90
2023-03-12T05:07:54.475Z,99.90
2023-03-12T05:08:27.343Z,99.90
2023-03-12T05:08:59.241Z,99.90
2023-03-12T05:09:31.096Z,99.90
2023-03-12T05:10:04.289Z,99.90
2023-03-12T05:10:36.290Z,99.90
2023-03-12T05:11:08.165Z,99.90
2023-03-12T05:11:41.031Z,99.90
2023-03-12T05:12:12.913Z,99.90
2023-03-12T05:12:44.794Z,99.90
2023-03-12T05:13:20.987Z,99.90
2023-03-12T05:13:53.061Z,99.90
2023-03-12T05:14:24.969Z,99.90
2023-03-12T05:14:57.898Z,99.90
2023-03-12T05:15:29.782Z,99.90
2023-03-12T05:16:01.708Z,99.90
2023-03-12T05:16:34.658Z,99.90
2023-03-12T05:17:07.119Z,99.90
2023-03-12T05:17:38.988Z,99.90
2023-03-12T05:18:10.870Z,99.90
2023-03-12T05:18:43.856Z,99.90
2023-03-12T05:19:15.968Z,99.90
2023-03-12T05:19:47.863Z,99.90
2023-03-12T05:20:21.078Z,99.90
2023-03-12T05:20:59.362Z,99.90
2023-03-12T05:21:31.411Z,99.90
2023-03-12T05:22:04.265Z,99.90
2023-03-12T05:22:36.280Z,99.90
2023-03-12T05:23:08.332Z,99.90
2023-03-12T05:23:43.095Z,99.90
2023-03-12T05:24:16.260Z,99.90
2023-03-12T05:24:49.123Z,99.90
2023-03-12T05:25:21.028Z,99.90
2023-03-12T05:25:52.883Z,99.90
2023-03-12T05:26:27.890Z,99.90
2023-03-12T05:26:59.811Z,99.90
2023-03-12T05:27:32.066Z,99.90
2023-03-12T05:28:04.976Z,99.90
2023-03-12T05:28:38.183Z,99.90
2023-03-12T05:29:10.198Z,99.90
2023-03-12T05:29:43.144Z,99.90
2023-03-12T05:30:15.300Z,99.90
2023-03-12T05:30:47.239Z,99.90
2023-03-12T05:31:21.232Z,99.90
2023-03-12T05:31:53.412Z,99.90
2023-03-12T05:32:25.471Z,99.90
2023-03-12T05:32:58.491Z,99.90
2023-03-12T05:33:30.466Z,99.90
2023-03-12T05:34:03.040Z,99.90
2023-03-12T05:34:36.393Z,99.90
2023-03-12T05:35:09.680Z,99.90
2023-03-12T05:35:41.563Z,99.90
2023-03-12T05:36:15.230Z,99.90
2023-03-12T05:36:47.070Z,99.90
2023-03-12T05:37:19.007Z,99.90
2023-03-12T05:37:51.928Z,99.90
2023-03-12T05:38:23.777Z,99.90
2023-03-12T05:38:56.018Z,99.90
2023-03-12T05:39:28.959Z,99.90
2023-03-12T05:40:00.929Z,99.90
2023-03-12T05:40:32.771Z,99.90
2023-03-12T05:41:06.683Z,99.90
2023-03-12T05:41:38.617Z,99.90
2023-03-12T05:42:10.460Z,99.90
2023-03-12T05:42:43.257Z,99.90
2023-03-12T05:43:15.101Z,99.90
2023-03-12T05:43:48.854Z,99.90
2023-03-12T05:44:21.751Z,99.90
2023-03-12T05:44:53.634Z,99.90
2023-03-12T05:45:25.472Z,99.90
2023-03-12T05:46:01.685Z,99.90
2023-03-12T05:46:33.615Z,99.90
2023-03-12T05:47:06.060Z,99.90
2023-03-12T05:47:38.906Z,99.90
2023-03-12T05:48:10.889Z,99.90
2023-03-12T05:48:42.839Z,99.90
2023-03-12T05:49:15.749Z,99.90
2023-03-12T05:49:47.717Z,99.90
2023-03-12T05:50:19.774Z,99.90
2023-03-12T05:50:52.603Z,99.90
2023-03-12T05:51:24.549Z,99.90
2023-03-12T05:51:56.597Z,99.90
2023-03-12T05:52:29.459Z,99.90
2023-03-12T05:53:01.379Z,99.90
2023-03-12T05:53:34.291Z,99.90
2023-03-12T05:54:06.259Z,99.90
2023-03-12T05:54:38.133Z,99.90
2023-03-12T05:55:11.425Z,99.90
2023-03-12T05:55:43.358Z,99.90
2023-03-12T05:56:17.302Z,99.90
2023-03-12T05:56:50.497Z,99.90
2023-03-12T05:57:22.375Z,99.90
2023-03-12T05:57:54.427Z,99.90
2023-03-12T05:58:27.337Z,99.90
2023-03-12T05:59:00.568Z,99.90
2023-03-12T05:59:32.486Z,99.90
2023-03-12T06:00:06.439Z,99.90
2023-03-12T06:00:38.846Z,99.90
2023-03-12T06:01:16.112Z,99.90
2023-03-12T06:01:48.083Z,99.90
2023-03-12T06:02:20.446Z,99.90
2023-03-12T06:02:53.391Z,99.90
2023-03-12T06:03:25.293Z,99.90
2023-03-12T06:03:57.426Z,99.90
2023-03-12T06:04:30.828Z,99.90
2023-03-12T06:05:02.694Z,99.90
2023-03-12T06:05:36.039Z,99.90
2023-03-12T06:06:08.951Z,99.90
2023-03-12T06:06:40.835Z,99.90
2023-03-12T06:07:13.695Z,99.90
2023-03-12T06:07:45.577Z,99.90
2023-03-12T06:08:17.437Z,99.90
2023-03-12T06:08:52.112Z,99.90
2023-03-12T06:09:24.010Z,99.90
2023-03-12T06:09:56.051Z,99.90
2023-03-12T06:10:29.257Z,99.90
2023-03-12T06:11:01.222Z,99.90
2023-03-12T06:11:33.551Z,99.90
2023-03-12T06:12:06.913Z,99.90
2023-03-12T06:12:38.971Z,99.90
2023-03-12T06:13:11.584Z,99.90
2023-03-12T06:13:44.480Z,99.90
2023-03-12T06:14:17.789Z,99.90
2023-03-12T06:14:49.734Z,99.90
2023-03-12T06:15:22.957Z,99.90
2023-03-12T06:15:54.855Z,99.90
2023-03-12T06:16:27.663Z,99.90
2023-03-12T06:17:00.677Z,99.90
2023-03-12T06:17:32.691Z,99.90
2023-03-12T06:18:05.100Z,99.90
2023-03-12T06:18:39.226Z,99.90
2023-03-12T06:19:13.992Z,99.90
2023-03-12T06:19:45.871Z,99.90
2023-03-12T06:20:19.121Z,99.90
2023-03-12T06:20:51.009Z,99.90
2023-03-12T06:21:25.332Z,99.90
2023-03-12T06:21:58.617Z,99.90
2023-03-12T06:22:30.478Z,99.90
2023-03-12T06:23:02.385Z,99.90
2023-03-12T06:23:35.264Z,99.90
2023-03-12T06:24:07.992Z,99.90
2023-03-12T06:24:42.480Z,99.90
2023-03-12T06:25:15.403Z,99.90
2023-03-12T06:25:47.265Z,99.90
2023-03-12T06:26:20.607Z,99.90
2023-03-12T06:26:53.454Z,99.90
2023-03-12T06:27:25.433Z,99.90
2023-03-12T06:27:57.402Z,99.90
2023-03-12T06:28:30.296Z,99.90
2023-03-12T06:29:02.186Z,99.90
2023-03-12T06:29:36.515Z,99.90
2023-03-12T06:30:09.600Z,99.90
2023-03-12T06:30:41.475Z,99.90
2023-03-12T06:31:14.493Z,99.90
2023-03-12T06:31:48.178Z,99.90
2023-03-12T06:32:20.226Z,99.90
2023-03-12T06:32:53.214Z,99.90
2023-03-12T06:33:25.173Z,99.90
2023-03-12T06:33:57.100Z,99.90
2023-03-12T06:34:29.989Z,99.90
2023-03-12T06:35:02.545Z,99.90
2023-03-12T06:35:35.881Z,99.90
2023-03-12T06:36:09.000Z,99.90
2023-03-12T06:36:40.875Z,99.90
2023-03-12T06:37:13.805Z,99.90
2023-03-12T06:37:45.676Z,99.90
2023-03-12T06:38:17.530Z,99.90
2023-03-12T06:38:50.441Z,99.90
2023-03-12T06:39:22.294Z,99.90
2023-03-12T06:39:54.446Z,99.90
2023-03-12T06:40:27.318Z,99.90
2023-03-12T06:41:00.670Z,99.90
2023-03-12T06:41:32.588Z,99.90
2023-03-12T06:42:05.754Z,99.90
2023-03-12T06:42:37.731Z,99.90
2023-03-12T06:43:12.167Z,99.90
2023-03-12T06:43:45.984Z,99.90
2023-03-12T06:44:17.907Z,99.90
2023-03-12T06:44:51.373Z,99.90
2023-03-12T06:45:24.248Z,99.90
2023-03-12T06:45:58.148Z,99.90
2023-03-12T06:46:30.266Z,99.90
2023-03-12T06:47:03.147Z,99.90
2023-03-12T06:47:35.057Z,99.90
2023-03-12T06:48:06.962Z,99.90
2023-03-12T06:48:41.347Z,99.90
2023-03-12T06:49:13.905Z,99.90
2023-03-12T06:49:45.773Z,99.90
2023-03-12T06:50:18.753Z,99.90
2023-03-12T06:50:51.407Z,99.90
2023-03-12T06:51:23.390Z,99.90
2023-03-12T06:51:57.013Z,99.90
2023-03-12T06:52:28.900Z,99.90
2023-03-12T06:53:01.762Z,99.90
2023-03-12T06:53:33.676Z,99.90
2023-03-12T06:54:05.707Z,99.90
2023-03-12T06:54:38.552Z,99.90
2023-03-12T06:55:10.544Z,99.90
2023-03-12T06:55:43.550Z,99.90
2023-03-12T06:56:17.075Z,99.90
2023-03-12T06:56:48.995Z,99.90
2023-03-12T06:57:21.290Z,99.90
2023-03-12T06:57:54.171Z,99.90
2023-03-12T06:58:26.469Z,99.90
2023-03-12T06:58:58.674Z,99.90
2023-03-12T06:59:31.638Z,99.90
2023-03-12T07:00:06.123Z,99.90
2023-03-12T07:00:39.183Z,99.90
2023-03-12T07:01:12.095Z,99.90
2023-03-12T07:01:43.971Z,99.90
2023-03-12T07:02:15.952Z,99.90
2023-03-12T07:02:48.842Z,99.90
2023-03-12T07:03:20.762Z,99.90
2023-03-12T07:03:53.582Z,99.90
2023-03-12T07:04:25.624Z,99.90
2023-03-12T07:04:57.975Z,99.90
2023-03-12T07:05:32.078Z,99.90
2023-03-12T07:06:04.646Z,99.60
2023-03-12T07:06:36.539Z,99.60